EPSCEPGD

Guest
Details From EPSC - GOLENIOW
To EPGD - LECH WALESA
Flight Number -
Tags generated
Created
Modified
Stats Distance 135 nm / 251 km
Max Altitude 11,100 ft / 3,383 m
Waypoints 3
Social Downloads 2
Likes 0
Share VATSIM

Download

Looking for another format? Having issues loading an existing format? Contact us
Advertisement - Login to hide

Notes

Basic altitude profile: - Ascent Rate: 2500ft/min - Ascent Speed: 250kts - Cruise Altitude: 35000ft - Cruise Speed: 420kts - Descent Rate: 1500ft/min - Descent Speed: 250kts Options: - Use NATs: no - Use PACOTS: no - Use low airways: yes - Use high airways: no

Route

EPSC BURAN EPGD

ID Type Via Altitude Latitude Longitude Leg Dist Tot Dist Heading (true) Name
O EPSC APT - 0 ft / 0 m 53.58473˚ 14.90220˚ - 0 nm - GOLENIOW
BURAN FIX - 11,100 ft / 3,383 m 54.18028˚ 17.02972˚ 83 nm 83 nm 64° / 65° -
O EPGD APT - 0 ft / 0 m 54.37617˚ 18.47188˚ 51 nm 135 nm 76° / 77° LECH WALESA

Altitude Profile

Advertisement - Login to hide

EPSC

Details ICAO EPSC (SZZ)
Name GOLENIOW
Region Poland
Timezone Europe/Warsaw (UTC+1.0)
Stats Elevation 154 ft / 47 m (AMSL)
Location 53.584731° 14.902195°
Runways 1
Magnetic Variation 4.297° E

METAR

EPSC 131900Z 15017KT 9999 SCT043 02/M02 Q0998

Decode

TAF

TAF EPSC 131730Z 1318/1418 18014KT CAVOK PROB40 TEMPO 1318/1406 18016G28KT BECMG 1319/1321 4000 SNRA BR BKN006 PROB40 1320/1401 1200 SN BKN002 BECMG 1406/1409 24012KT 9999 NSW BKN020 TEMPO 1406/1418 24016G28KT PROB40 TEMPO 1412/1418 SHSNRA BKN010CB

Decode

Departure Runways

ID Width Length Bearing (true) Bearing (mag) Surface Threshold Offset Overrun Length
13 197 ft / 60 m 8,187 ft / 2,495 m 130.94° 126.64° Concrete 0 ft / 0 m 0 ft / 0 m
31 197 ft / 60 m 8,187 ft / 2,495 m 310.96° 306.66° Concrete 0 ft / 0 m 0 ft / 0 m

EPGD

Details ICAO EPGD (GDN)
Name LECH WALESA
Region Poland
Timezone Europe/Warsaw (UTC+1.0)
Stats Elevation 489 ft / 149 m (AMSL)
Location 54.376167° 18.471884°
Runways 1
Magnetic Variation 5.450° E

METAR

EPGD 131900Z 17013KT CAVOK 00/M02 Q1003

Decode

TAF

TAF TAF EPGD 131730Z 1318/1418 18014KT 9999 SCT020 PROB40 TEMPO 1318/1410 18018G28KT BECMG 1404/1406 4000 SNRA BR BKN005 PROB40 1406/1411 1200 SN BR BKN002 BECMG 1411/1413 24012KT 9999 NSW BKN012 PROB40 TEMPO 1411/1412 24015G25KT

Decode

Destination Runways

ID Width Length Bearing (true) Bearing (mag) Surface Threshold Offset Overrun Length
11 148 ft / 45 m 9,158 ft / 2,791 m 112.96° 107.51° Asphalt 0 ft / 0 m 0 ft / 0 m
29 148 ft / 45 m 9,158 ft / 2,791 m 293.00° 287.55° Asphalt 0 ft / 0 m 0 ft / 0 m

Approach Navaids

Runway Type Ident Frequency Range Bearing (true) Bearing (mag) Slope Elevation
29 Localiser IGDA 110.30 MHz 18 nm / 33 km 292.96° 287.51° - 489 ft / 149 m (AMSL)
29 Glidescope IGDA 110.30 MHz 10 nm / 19 km 292.98° 287.53° 2.90° 489 ft / 149 m (AMSL)
29 DME IGDA 110.30 MHz 18 nm / 33 km - - - 492 ft / 150 m (AMSL)

Popular Alternatives